Pagrindinis puslapis
METAR-TAF:

METAR-TAF

Oro uostai :

Bauru, San Paulas, Brazilija

platuma: 22-19S, ilguma: 049-04W, Aukštis: 590 m

Dabartinis oras

Ataskaita buvo paskelbta 34 minutes, ne 02:00 UTC
Vėjas 4 kt iš Šiaurės
Temperatūra 25°C
Drėgmė 100%
Slėgis 1015 hPa
Matomumas 10 km arba daugiau
nėra debesų žemiau 1500 m ir nėra kamuolinių lietaus debesų

METAR: SBBU 210200Z 01004KT CAVOK 25/25 Q1015

Laikas: 23:34 (02:34 UTC)

Prognozė

Ataskaita buvo paskelbta 4 valandos ir 34 minutes, ne 22:00 UTC
Prognozė galioja nuo 21 metu 00 UTC su 21 metu 12 UTC
Vėjas 5 kt iš Rytų/Šiaurės Rytų
Matomumas 10 km arba daugiau
Mažai debesys ne aukštis 3000 ft

TAF: SBBU 202200Z 2100/2112 07005KT 9999 FEW030 TX26/2100Z TN23/2108Z RMK PEA

Orai ataskaitas ir orų prognozės (METAR, TAF).

turimą stotys yra geltonos ir raudonos taškus žemėlapyje.

Perkelti pele per norėdami pamatyti stoties vardą.

Tada spustelėkite, norėdami matyti oro stebėjimo ir prognozės.

Norėdami pakeisti žemėlapį: spustelėkite ant žalios mygtukų su juodo kryžiaus žemyn,; žalią mygtuką su brūkšneliu, jei norite nutolinti; arba žalių rodyklių gretimoms žemėlapius.


METAR-TAF: